sensor_id;sensor_type;location;lat;lon;timestamp;pressure;altitude;pressure_sealevel;temperature;humidity
33414;BME280;60055;41.884;12.534;2023-04-20T00:00:35;100825.38;;;15.26;69.08
33414;BME280;60055;41.884;12.534;2023-04-20T00:03:00;100824.16;;;15.31;68.92
33414;BME280;60055;41.884;12.534;2023-04-20T00:05:26;100825.81;;;15.34;69.17
33414;BME280;60055;41.884;12.534;2023-04-20T00:07:51;100823.47;;;15.28;69.28
33414;BME280;60055;41.884;12.534;2023-04-20T00:10:18;100820.13;;;15.24;69.03
33414;BME280;60055;41.884;12.534;2023-04-20T00:12:44;100815.31;;;14.98;70.19
33414;BME280;60055;41.884;12.534;2023-04-20T00:15:09;100804.84;;;14.95;70.26
33414;BME280;60055;41.884;12.534;2023-04-20T00:17:36;100804.84;;;14.95;70.43
33414;BME280;60055;41.884;12.534;2023-04-20T00:20:03;100797.03;;;14.92;70.56
33414;BME280;60055;41.884;12.534;2023-04-20T00:22:29;100795.41;;;14.90;70.21
33414;BME280;60055;41.884;12.534;2023-04-20T00:24:55;100787.06;;;14.80;70.38
33414;BME280;60055;41.884;12.534;2023-04-20T00:27:20;100786.63;;;14.88;70.36
33414;BME280;60055;41.884;12.534;2023-04-20T00:29:45;100781.81;;;14.78;70.17
33414;BME280;60055;41.884;12.534;2023-04-20T00:32:11;100776.19;;;14.67;70.50
33414;BME280;60055;41.884;12.534;2023-04-20T00:34:36;100767.84;;;14.58;71.21
33414;BME280;60055;41.884;12.534;2023-04-20T00:37:01;100767.63;;;14.45;71.65
33414;BME280;60055;41.884;12.534;2023-04-20T00:39:27;100761.91;;;14.53;71.00
33414;BME280;60055;41.884;12.534;2023-04-20T00:41:52;100756.06;;;14.46;71.45
33414;BME280;60055;41.884;12.534;2023-04-20T00:44:18;100754.25;;;14.47;71.36
33414;BME280;60055;41.884;12.534;2023-04-20T00:46:43;100756.19;;;14.43;71.30
33414;BME280;60055;41.884;12.534;2023-04-20T00:49:08;100754.00;;;14.34;71.19
33414;BME280;60055;41.884;12.534;2023-04-20T00:51:35;100752.78;;;14.41;71.11
33414;BME280;60055;41.884;12.534;2023-04-20T00:54:01;100753.63;;;14.42;70.48
33414;BME280;60055;41.884;12.534;2023-04-20T00:56:26;100750.72;;;14.29;71.02
33414;BME280;60055;41.884;12.534;2023-04-20T00:58:52;100751.00;;;14.23;71.73
33414;BME280;60055;41.884;12.534;2023-04-20T01:01:18;100748.69;;;14.34;70.82
33414;BME280;60055;41.884;12.534;2023-04-20T01:03:44;100742.09;;;14.24;71.17
33414;BME280;60055;41.884;12.534;2023-04-20T01:06:11;100741.13;;;14.44;70.30
33414;BME280;60055;41.884;12.534;2023-04-20T01:08:50;100740.19;;;14.45;70.46
33414;BME280;60055;41.884;12.534;2023-04-20T01:11:16;100739.09;;;14.49;69.87
33414;BME280;60055;41.884;12.534;2023-04-20T01:13:42;100737.47;;;14.46;69.70
33414;BME280;60055;41.884;12.534;2023-04-20T01:16:07;100738.72;;;14.39;70.02
33414;BME280;60055;41.884;12.534;2023-04-20T01:18:44;100725.69;;;14.33;69.68
33414;BME280;60055;41.884;12.534;2023-04-20T01:21:11;100725.28;;;14.42;69.73
33414;BME280;60055;41.884;12.534;2023-04-20T01:23:37;100722.25;;;14.31;70.03
33414;BME280;60055;41.884;12.534;2023-04-20T01:26:10;100722.97;;;14.17;70.27
33414;BME280;60055;41.884;12.534;2023-04-20T01:28:36;100729.63;;;14.26;70.11
33414;BME280;60055;41.884;12.534;2023-04-20T01:31:05;100719.84;;;14.26;69.55
33414;BME280;60055;41.884;12.534;2023-04-20T01:33:31;100728.75;;;14.25;69.93
33414;BME280;60055;41.884;12.534;2023-04-20T01:35:57;100720.63;;;14.28;69.87
33414;BME280;60055;41.884;12.534;2023-04-20T01:38:23;100723.66;;;14.21;69.57
33414;BME280;60055;41.884;12.534;2023-04-20T01:40:50;100730.34;;;14.29;69.25
33414;BME280;60055;41.884;12.534;2023-04-20T01:43:16;100723.13;;;14.14;69.94
33414;BME280;60055;41.884;12.534;2023-04-20T01:45:41;100726.16;;;14.24;70.08
33414;BME280;60055;41.884;12.534;2023-04-20T01:48:07;100722.66;;;14.23;69.99
33414;BME280;60055;41.884;12.534;2023-04-20T01:50:32;100714.28;;;14.14;69.98
33414;BME280;60055;41.884;12.534;2023-04-20T01:52:57;100710.47;;;14.19;70.34
33414;BME280;60055;41.884;12.534;2023-04-20T01:55:23;100715.63;;;14.22;70.40
33414;BME280;60055;41.884;12.534;2023-04-20T01:57:48;100718.31;;;14.22;69.83
33414;BME280;60055;41.884;12.534;2023-04-20T02:00:14;100710.16;;;14.25;69.96
33414;BME280;60055;41.884;12.534;2023-04-20T02:02:40;100704.16;;;14.22;69.97
33414;BME280;60055;41.884;12.534;2023-04-20T02:05:06;100711.81;;;14.28;69.47
33414;BME280;60055;41.884;12.534;2023-04-20T02:07:31;100706.66;;;14.08;70.24
33414;BME280;60055;41.884;12.534;2023-04-20T02:09:56;100710.34;;;14.22;69.60
33414;BME280;60055;41.884;12.534;2023-04-20T02:12:22;100711.16;;;14.23;70.03
33414;BME280;60055;41.884;12.534;2023-04-20T02:14:48;100704.69;;;14.28;69.48
33414;BME280;60055;41.884;12.534;2023-04-20T02:17:14;100702.53;;;14.37;69.45
33414;BME280;60055;41.884;12.534;2023-04-20T02:19:39;100706.91;;;14.38;69.20
33414;BME280;60055;41.884;12.534;2023-04-20T02:22:04;100705.03;;;14.40;68.86
33414;BME280;60055;41.884;12.534;2023-04-20T02:24:30;100708.53;;;14.40;68.62
33414;BME280;60055;41.884;12.534;2023-04-20T02:26:56;100701.19;;;14.28;69.20
33414;BME280;60055;41.884;12.534;2023-04-20T02:29:21;100699.13;;;14.33;69.24
33414;BME280;60055;41.884;12.534;2023-04-20T02:31:46;100700.78;;;14.18;69.50
33414;BME280;60055;41.884;12.534;2023-04-20T02:34:12;100692.34;;;14.27;69.17
33414;BME280;60055;41.884;12.534;2023-04-20T02:36:39;100695.94;;;14.26;68.92
33414;BME280;60055;41.884;12.534;2023-04-20T02:39:04;100692.19;;;14.13;69.79
33414;BME280;60055;41.884;12.534;2023-04-20T02:41:30;100699.44;;;14.10;69.63
33414;BME280;60055;41.884;12.534;2023-04-20T02:43:55;100697.91;;;14.06;70.16
33414;BME280;60055;41.884;12.534;2023-04-20T02:46:21;100698.75;;;14.06;70.26
33414;BME280;60055;41.884;12.534;2023-04-20T02:48:46;100691.81;;;14.04;70.32
33414;BME280;60055;41.884;12.534;2023-04-20T02:51:11;100693.75;;;14.00;70.48
33414;BME280;60055;41.884;12.534;2023-04-20T02:53:37;100691.75;;;14.05;70.49
33414;BME280;60055;41.884;12.534;2023-04-20T02:56:02;100691.91;;;14.02;70.29
33414;BME280;60055;41.884;12.534;2023-04-20T02:58:27;100693.31;;;13.92;70.62
33414;BME280;60055;41.884;12.534;2023-04-20T03:01:02;100694.66;;;13.65;71.33
33414;BME280;60055;41.884;12.534;2023-04-20T03:03:28;100698.75;;;13.72;70.99
33414;BME280;60055;41.884;12.534;2023-04-20T03:05:54;100692.94;;;13.64;71.71
33414;BME280;60055;41.884;12.534;2023-04-20T03:08:20;100693.25;;;13.58;71.23
33414;BME280;60055;41.884;12.534;2023-04-20T03:10:45;100693.31;;;13.56;71.43
33414;BME280;60055;41.884;12.534;2023-04-20T03:13:11;100693.72;;;13.30;72.17
33414;BME280;60055;41.884;12.534;2023-04-20T03:15:37;100700.66;;;13.32;72.09
33414;BME280;60055;41.884;12.534;2023-04-20T03:18:02;100699.22;;;13.25;72.11
33414;BME280;60055;41.884;12.534;2023-04-20T03:20:28;100697.06;;;13.34;71.77
33414;BME280;60055;41.884;12.534;2023-04-20T03:22:54;100706.03;;;13.31;72.01
33414;BME280;60055;41.884;12.534;2023-04-20T03:25:19;100697.13;;;13.32;71.96
33414;BME280;60055;41.884;12.534;2023-04-20T03:27:45;100701.16;;;13.41;71.27
33414;BME280;60055;41.884;12.534;2023-04-20T03:30:11;100702.03;;;13.41;71.01
33414;BME280;60055;41.884;12.534;2023-04-20T03:32:37;100700.66;;;13.32;71.51
33414;BME280;60055;41.884;12.534;2023-04-20T03:35:06;100693.50;;;13.35;71.12
33414;BME280;60055;41.884;12.534;2023-04-20T03:37:32;100696.34;;;13.11;71.83
33414;BME280;60055;41.884;12.534;2023-04-20T03:39:58;100692.34;;;13.21;71.18
33414;BME280;60055;41.884;12.534;2023-04-20T03:42:23;100696.88;;;13.19;71.52
33414;BME280;60055;41.884;12.534;2023-04-20T03:44:49;100700.72;;;13.12;71.45
33414;BME280;60055;41.884;12.534;2023-04-20T03:47:14;100696.56;;;13.25;71.39
33414;BME280;60055;41.884;12.534;2023-04-20T03:49:39;100703.03;;;13.20;71.06
33414;BME280;60055;41.884;12.534;2023-04-20T03:52:05;100694.66;;;13.10;71.68
33414;BME280;60055;41.884;12.534;2023-04-20T03:54:31;100707.75;;;13.13;71.22
33414;BME280;60055;41.884;12.534;2023-04-20T03:56:56;100704.41;;;13.08;71.39
33414;BME280;60055;41.884;12.534;2023-04-20T03:59:22;100702.66;;;13.09;71.68
33414;BME280;60055;41.884;12.534;2023-04-20T04:01:47;100704.03;;;13.17;71.35
33414;BME280;60055;41.884;12.534;2023-04-20T04:04:14;100705.16;;;13.12;71.33
33414;BME280;60055;41.884;12.534;2023-04-20T04:06:40;100712.50;;;13.05;71.43
33414;BME280;60055;41.884;12.534;2023-04-20T04:09:05;100711.47;;;13.09;71.32
33414;BME280;60055;41.884;12.534;2023-04-20T04:11:30;100714.19;;;13.08;71.26
33414;BME280;60055;41.884;12.534;2023-04-20T04:13:57;100718.44;;;12.92;71.94
33414;BME280;60055;41.884;12.534;2023-04-20T04:16:23;100724.28;;;13.00;71.78
33414;BME280;60055;41.884;12.534;2023-04-20T04:18:49;100723.97;;;12.87;71.84
33414;BME280;60055;41.884;12.534;2023-04-20T04:21:14;100725.63;;;12.90;71.87
33414;BME280;60055;41.884;12.534;2023-04-20T04:23:40;100727.88;;;12.78;72.66
33414;BME280;60055;41.884;12.534;2023-04-20T04:26:07;100730.84;;;12.91;71.51
33414;BME280;60055;41.884;12.534;2023-04-20T04:28:32;100722.63;;;12.97;71.60
33414;BME280;60055;41.884;12.534;2023-04-20T04:31:00;100735.59;;;13.03;71.06
33414;BME280;60055;41.884;12.534;2023-04-20T04:33:26;100726.69;;;12.86;71.68
33414;BME280;60055;41.884;12.534;2023-04-20T04:35:51;100729.78;;;12.95;71.12
33414;BME280;60055;41.884;12.534;2023-04-20T04:38:17;100730.28;;;13.03;70.63
33414;BME280;60055;41.884;12.534;2023-04-20T04:40:43;100738.16;;;13.05;71.06
33414;BME280;60055;41.884;12.534;2023-04-20T04:43:10;100726.34;;;12.93;71.05
33414;BME280;60055;41.884;12.534;2023-04-20T04:45:38;100728.41;;;12.87;71.33
33414;BME280;60055;41.884;12.534;2023-04-20T04:48:05;100722.88;;;12.91;71.11
33414;BME280;60055;41.884;12.534;2023-04-20T04:50:30;100720.13;;;12.94;71.38
33414;BME280;60055;41.884;12.534;2023-04-20T04:52:56;100722.63;;;12.97;71.56
33414;BME280;60055;41.884;12.534;2023-04-20T04:55:21;100727.78;;;13.00;71.16
33414;BME280;60055;41.884;12.534;2023-04-20T04:57:47;100723.41;;;12.99;71.41
33414;BME280;60055;41.884;12.534;2023-04-20T05:00:13;100724.69;;;13.11;71.08
33414;BME280;60055;41.884;12.534;2023-04-20T05:02:40;100731.53;;;13.15;70.77
33414;BME280;60055;41.884;12.534;2023-04-20T05:05:05;100734.06;;;13.18;70.13
33414;BME280;60055;41.884;12.534;2023-04-20T05:07:32;100731.75;;;13.48;69.38
33414;BME280;60055;41.884;12.534;2023-04-20T05:09:58;100741.75;;;13.78;68.41
33414;BME280;60055;41.884;12.534;2023-04-20T05:12:23;100734.53;;;14.16;67.11
33414;BME280;60055;41.884;12.534;2023-04-20T05:14:51;100744.69;;;14.25;66.08
33414;BME280;60055;41.884;12.534;2023-04-20T05:17:16;100745.66;;;14.42;65.49
33414;BME280;60055;41.884;12.534;2023-04-20T05:19:41;100753.09;;;14.52;65.21
33414;BME280;60055;41.884;12.534;2023-04-20T05:22:07;100756.78;;;14.82;64.54
33414;BME280;60055;41.884;12.534;2023-04-20T05:24:32;100751.28;;;15.03;63.53
33414;BME280;60055;41.884;12.534;2023-04-20T05:26:57;100759.34;;;14.84;63.50
33414;BME280;60055;41.884;12.534;2023-04-20T05:29:23;100751.53;;;14.81;63.87
33414;BME280;60055;41.884;12.534;2023-04-20T05:31:48;100756.19;;;14.60;64.42
33414;BME280;60055;41.884;12.534;2023-04-20T05:34:15;100748.94;;;14.29;65.17
33414;BME280;60055;41.884;12.534;2023-04-20T05:36:40;100748.94;;;14.29;65.59
33414;BME280;60055;41.884;12.534;2023-04-20T05:39:07;100752.81;;;14.22;66.00
33414;BME280;60055;41.884;12.534;2023-04-20T05:41:32;100749.84;;;14.11;65.95
33414;BME280;60055;41.884;12.534;2023-04-20T05:43:57;100748.59;;;14.01;66.97
33414;BME280;60055;41.884;12.534;2023-04-20T05:46:23;100748.59;;;14.01;66.75
33414;BME280;60055;41.884;12.534;2023-04-20T05:48:48;100748.19;;;13.92;66.67
33414;BME280;60055;41.884;12.534;2023-04-20T05:51:14;100751.00;;;13.89;66.89
33414;BME280;60055;41.884;12.534;2023-04-20T05:53:40;100753.84;;;13.84;67.50
33414;BME280;60055;41.884;12.534;2023-04-20T05:56:07;100750.56;;;13.79;67.63
33414;BME280;60055;41.884;12.534;2023-04-20T05:58:34;100749.81;;;13.94;67.19
33414;BME280;60055;41.884;12.534;2023-04-20T06:00:59;100754.19;;;13.95;67.57
33414;BME280;60055;41.884;12.534;2023-04-20T06:03:26;100759.16;;;13.84;67.88
33414;BME280;60055;41.884;12.534;2023-04-20T06:05:51;100746.63;;;13.69;68.46
33414;BME280;60055;41.884;12.534;2023-04-20T06:08:17;100760.75;;;13.88;67.57
33414;BME280;60055;41.884;12.534;2023-04-20T06:10:43;100756.72;;;14.15;66.91
33414;BME280;60055;41.884;12.534;2023-04-20T06:13:08;100761.97;;;14.51;66.40
33414;BME280;60055;41.884;12.534;2023-04-20T06:15:34;100766.34;;;14.69;64.16
33414;BME280;60055;41.884;12.534;2023-04-20T06:17:59;100770.28;;;14.95;63.80
33414;BME280;60055;41.884;12.534;2023-04-20T06:20:25;100763.94;;;15.46;62.28
33414;BME280;60055;41.884;12.534;2023-04-20T06:22:51;100763.81;;;15.49;61.97
33414;BME280;60055;41.884;12.534;2023-04-20T06:25:16;100770.94;;;15.31;62.37
33414;BME280;60055;41.884;12.534;2023-04-20T06:27:41;100768.28;;;15.16;63.21
33414;BME280;60055;41.884;12.534;2023-04-20T06:30:07;100773.41;;;15.03;63.79
33414;BME280;60055;41.884;12.534;2023-04-20T06:32:33;100773.78;;;15.28;63.44
33414;BME280;60055;41.884;12.534;2023-04-20T06:34:59;100775.06;;;15.21;63.27
33414;BME280;60055;41.884;12.534;2023-04-20T06:37:24;100781.00;;;15.26;63.33
33414;BME280;60055;41.884;12.534;2023-04-20T06:39:53;100764.13;;;15.90;61.85
33414;BME280;60055;41.884;12.534;2023-04-20T06:42:21;100770.97;;;16.10;61.25
33414;BME280;60055;41.884;12.534;2023-04-20T06:44:49;100770.44;;;16.78;59.07
33414;BME280;60055;41.884;12.534;2023-04-20T06:47:15;100761.47;;;17.08;57.86
33414;BME280;60055;41.884;12.534;2023-04-20T06:49:40;100767.50;;;17.11;57.56
33414;BME280;60055;41.884;12.534;2023-04-20T06:52:05;100765.97;;;17.35;56.78
33414;BME280;60055;41.884;12.534;2023-04-20T06:54:31;100765.16;;;17.76;55.86
33414;BME280;60055;41.884;12.534;2023-04-20T06:56:57;100761.72;;;18.27;54.86
33414;BME280;60055;41.884;12.534;2023-04-20T06:59:22;100763.28;;;18.17;54.04
33414;BME280;60055;41.884;12.534;2023-04-20T07:01:47;100762.19;;;18.07;54.59
33414;BME280;60055;41.884;12.534;2023-04-20T07:04:14;100770.31;;;18.45;54.16
33414;BME280;60055;41.884;12.534;2023-04-20T07:06:39;100770.34;;;18.58;53.37
33414;BME280;60055;41.884;12.534;2023-04-20T07:09:05;100771.53;;;18.66;53.47
33414;BME280;60055;41.884;12.534;2023-04-20T07:11:30;100776.56;;;18.96;52.59
33414;BME280;60055;41.884;12.534;2023-04-20T07:13:56;100775.84;;;18.81;52.86
33414;BME280;60055;41.884;12.534;2023-04-20T07:16:21;100771.91;;;18.48;53.84
33414;BME280;60055;41.884;12.534;2023-04-20T07:18:46;100779.34;;;18.57;53.44
33414;BME280;60055;41.884;12.534;2023-04-20T07:21:12;100771.78;;;18.49;54.42
33414;BME280;60055;41.884;12.534;2023-04-20T07:23:39;100781.59;;;18.63;53.96
33414;BME280;60055;41.884;12.534;2023-04-20T07:26:04;100774.75;;;19.22;52.77
33414;BME280;60055;41.884;12.534;2023-04-20T07:28:30;100776.22;;;19.38;51.88
33414;BME280;60055;41.884;12.534;2023-04-20T07:30:55;100774.03;;;18.95;53.09
33414;BME280;60055;41.884;12.534;2023-04-20T07:33:20;100768.34;;;18.99;53.17
33414;BME280;60055;41.884;12.534;2023-04-20T07:35:48;100774.22;;;19.17;52.63
33414;BME280;60055;41.884;12.534;2023-04-20T07:38:14;100770.88;;;19.51;52.57
33414;BME280;60055;41.884;12.534;2023-04-20T07:40:39;100769.88;;;19.65;52.18
33414;BME280;60055;41.884;12.534;2023-04-20T07:43:05;100766.69;;;19.47;52.60
33414;BME280;60055;41.884;12.534;2023-04-20T07:45:31;100761.22;;;19.85;50.98
33414;BME280;60055;41.884;12.534;2023-04-20T07:47:56;100773.78;;;19.35;52.56
33414;BME280;60055;41.884;12.534;2023-04-20T07:50:25;100769.16;;;20.10;50.74
33414;BME280;60055;41.884;12.534;2023-04-20T07:52:51;100765.31;;;20.25;49.92
33414;BME280;60055;41.884;12.534;2023-04-20T07:55:16;100768.25;;;20.46;47.90
33414;BME280;60055;41.884;12.534;2023-04-20T07:57:43;100752.38;;;20.19;49.37
33414;BME280;60055;41.884;12.534;2023-04-20T08:00:09;100761.56;;;20.04;49.19
33414;BME280;60055;41.884;12.534;2023-04-20T08:02:37;100758.56;;;19.49;50.64
33414;BME280;60055;41.884;12.534;2023-04-20T08:05:14;100757.94;;;20.29;48.91
33414;BME280;60055;41.884;12.534;2023-04-20T08:07:42;100757.34;;;20.71;48.08
33414;BME280;60055;41.884;12.534;2023-04-20T08:10:08;100761.63;;;20.85;46.72
33414;BME280;60055;41.884;12.534;2023-04-20T08:12:34;100765.78;;;20.89;46.03
33414;BME280;60055;41.884;12.534;2023-04-20T08:15:00;100759.56;;;20.77;45.90
33414;BME280;60055;41.884;12.534;2023-04-20T08:17:30;100753.97;;;20.92;45.46
33414;BME280;60055;41.884;12.534;2023-04-20T08:19:56;100760.53;;;19.94;47.89
33414;BME280;60055;41.884;12.534;2023-04-20T08:22:21;100750.63;;;19.60;48.72
33414;BME280;60055;41.884;12.534;2023-04-20T08:24:48;100757.47;;;20.35;46.51
33414;BME280;60055;41.884;12.534;2023-04-20T08:27:13;100757.41;;;19.76;48.00
33414;BME280;60055;41.884;12.534;2023-04-20T08:29:41;100754.44;;;19.68;48.04
33414;BME280;60055;41.884;12.534;2023-04-20T08:32:09;100755.88;;;20.32;46.25
33414;BME280;60055;41.884;12.534;2023-04-20T08:34:37;100762.41;;;20.52;45.68
33414;BME280;60055;41.884;12.534;2023-04-20T08:37:02;100757.97;;;20.86;44.14
33414;BME280;60055;41.884;12.534;2023-04-20T08:39:28;100749.19;;;21.06;43.60
33414;BME280;60055;41.884;12.534;2023-04-20T08:41:54;100747.16;;;21.10;43.42
33414;BME280;60055;41.884;12.534;2023-04-20T08:44:21;100752.16;;;21.14;43.47
33414;BME280;60055;41.884;12.534;2023-04-20T08:46:49;100745.78;;;20.93;43.49
33414;BME280;60055;41.884;12.534;2023-04-20T08:49:19;100745.44;;;21.09;43.39
33414;BME280;60055;41.884;12.534;2023-04-20T08:51:48;100740.47;;;20.23;46.18
33414;BME280;60055;41.884;12.534;2023-04-20T08:57:46;100747.34;;;20.73;43.91
33414;BME280;60055;41.884;12.534;2023-04-20T09:00:21;100736.66;;;21.18;42.86
33414;BME280;60055;41.884;12.534;2023-04-20T09:02:53;100745.09;;;20.56;44.77
33414;BME280;60055;41.884;12.534;2023-04-20T09:05:31;100742.00;;;20.84;43.28
33414;BME280;60055;41.884;12.534;2023-04-20T09:07:59;100735.94;;;21.38;42.38
33414;BME280;60055;41.884;12.534;2023-04-20T09:10:38;100737.47;;;21.63;40.89
33414;BME280;60055;41.884;12.534;2023-04-20T09:13:24;100734.81;;;21.29;41.97
33414;BME280;60055;41.884;12.534;2023-04-20T09:15:50;100739.69;;;21.47;42.28
33414;BME280;60055;41.884;12.534;2023-04-20T09:18:15;100728.59;;;21.40;41.43
33414;BME280;60055;41.884;12.534;2023-04-20T09:20:45;100724.47;;;20.11;43.90
33414;BME280;60055;41.884;12.534;2023-04-20T09:23:14;100721.97;;;20.31;44.03
33414;BME280;60055;41.884;12.534;2023-04-20T09:25:40;100724.56;;;20.09;45.43
33414;BME280;60055;41.884;12.534;2023-04-20T09:28:08;100723.69;;;20.78;43.45
33414;BME280;60055;41.884;12.534;2023-04-20T09:30:44;100728.97;;;20.45;43.13
33414;BME280;60055;41.884;12.534;2023-04-20T09:33:10;100714.09;;;20.52;44.15
33414;BME280;60055;41.884;12.534;2023-04-20T09:35:40;100715.88;;;20.86;40.82
33414;BME280;60055;41.884;12.534;2023-04-20T09:38:08;100722.09;;;20.76;40.57
33414;BME280;60055;41.884;12.534;2023-04-20T09:40:34;100716.25;;;21.26;40.41
33414;BME280;60055;41.884;12.534;2023-04-20T09:43:03;100712.56;;;21.50;39.60
33414;BME280;60055;41.884;12.534;2023-04-20T09:45:39;100707.59;;;21.01;40.39
33414;BME280;60055;41.884;12.534;2023-04-20T09:48:05;100710.66;;;20.85;41.45
33414;BME280;60055;41.884;12.534;2023-04-20T09:50:31;100710.47;;;20.75;42.55
33414;BME280;60055;41.884;12.534;2023-04-20T09:53:11;100708.53;;;20.20;44.31
33414;BME280;60055;41.884;12.534;2023-04-20T09:55:44;100703.28;;;20.54;43.44
33414;BME280;60055;41.884;12.534;2023-04-20T09:58:09;100697.69;;;20.79;42.56
33414;BME280;60055;41.884;12.534;2023-04-20T10:00:35;100696.84;;;20.89;42.77
33414;BME280;60055;41.884;12.534;2023-04-20T10:03:01;100703.06;;;21.01;42.69
33414;BME280;60055;41.884;12.534;2023-04-20T10:05:47;100700.00;;;20.61;42.83
33414;BME280;60055;41.884;12.534;2023-04-20T10:08:19;100697.72;;;21.01;42.27
33414;BME280;60055;41.884;12.534;2023-04-20T10:10:47;100700.66;;;21.20;41.26
33414;BME280;60055;41.884;12.534;2023-04-20T10:13:15;100693.81;;;21.38;39.96
33414;BME280;60055;41.884;12.534;2023-04-20T10:15:43;100686.81;;;21.36;39.88
33414;BME280;60055;41.884;12.534;2023-04-20T10:18:21;100700.31;;;20.46;42.32
33414;BME280;60055;41.884;12.534;2023-04-20T10:20:49;100690.97;;;20.73;40.99
33414;BME280;60055;41.884;12.534;2023-04-20T10:23:16;100690.78;;;21.21;40.10
33414;BME280;60055;41.884;12.534;2023-04-20T10:25:54;100691.00;;;21.29;39.49
33414;BME280;60055;41.884;12.534;2023-04-20T10:28:20;100692.94;;;21.27;40.50
33414;BME280;60055;41.884;12.534;2023-04-20T10:30:50;100690.34;;;21.59;40.07
33414;BME280;60055;41.884;12.534;2023-04-20T10:33:16;100686.97;;;21.34;41.24
33414;BME280;60055;41.884;12.534;2023-04-20T10:35:50;100680.63;;;20.91;42.48
33414;BME280;60055;41.884;12.534;2023-04-20T10:38:26;100674.00;;;20.62;43.63
33414;BME280;60055;41.884;12.534;2023-04-20T10:40:53;100673.59;;;20.33;43.23
33414;BME280;60055;41.884;12.534;2023-04-20T10:43:19;100670.34;;;19.82;44.84
33414;BME280;60055;41.884;12.534;2023-04-20T10:45:45;100670.41;;;20.04;45.27
33414;BME280;60055;41.884;12.534;2023-04-20T10:48:11;100666.97;;;20.26;44.50
33414;BME280;60055;41.884;12.534;2023-04-20T10:50:36;100660.59;;;20.73;41.89
33414;BME280;60055;41.884;12.534;2023-04-20T10:53:02;100657.56;;;20.20;43.43
33414;BME280;60055;41.884;12.534;2023-04-20T10:55:29;100653.75;;;20.47;43.31
33414;BME280;60055;41.884;12.534;2023-04-20T10:57:54;100652.38;;;20.30;43.88
33414;BME280;60055;41.884;12.534;2023-04-20T11:00:22;100650.44;;;20.32;43.02
33414;BME280;60055;41.884;12.534;2023-04-20T11:02:49;100647.09;;;20.17;43.70
33414;BME280;60055;41.884;12.534;2023-04-20T11:05:16;100645.31;;;20.29;43.74
33414;BME280;60055;41.884;12.534;2023-04-20T11:07:58;100643.88;;;19.77;44.98
33414;BME280;60055;41.884;12.534;2023-04-20T11:10:39;100637.72;;;19.53;45.35
33414;BME280;60055;41.884;12.534;2023-04-20T11:13:05;100632.97;;;19.57;44.86
33414;BME280;60055;41.884;12.534;2023-04-20T11:15:31;100630.50;;;19.54;45.69
33414;BME280;60055;41.884;12.534;2023-04-20T12:42:06;100564.44;;;19.18;49.19
33414;BME280;60055;41.884;12.534;2023-04-20T12:44:32;100571.13;;;19.36;48.69
33414;BME280;60055;41.884;12.534;2023-04-20T12:57:02;100547.66;;;20.43;45.90
33414;BME280;60055;41.884;12.534;2023-04-20T12:59:28;100561.69;;;20.35;45.87
33414;BME280;60055;41.884;12.534;2023-04-20T13:01:54;100554.88;;;20.31;46.56
33414;BME280;60055;41.884;12.534;2023-04-20T13:04:19;100556.13;;;19.92;46.93
33414;BME280;60055;41.884;12.534;2023-04-20T13:06:45;100548.78;;;19.83;47.57
33414;BME280;60055;41.884;12.534;2023-04-20T13:09:10;100548.84;;;19.59;49.38
33414;BME280;60055;41.884;12.534;2023-04-20T13:11:36;100554.16;;;19.94;49.11
33414;BME280;60055;41.884;12.534;2023-04-20T13:14:01;100561.81;;;19.76;48.48
33414;BME280;60055;41.884;12.534;2023-04-20T13:16:26;100552.34;;;19.49;48.66
33414;BME280;60055;41.884;12.534;2023-04-20T13:18:53;100547.59;;;19.28;50.42
33414;BME280;60055;41.884;12.534;2023-04-20T13:21:19;100548.78;;;19.24;50.95
33414;BME280;60055;41.884;12.534;2023-04-20T13:23:57;100540.19;;;19.56;50.41
33414;BME280;60055;41.884;12.534;2023-04-20T13:28:57;100538.56;;;19.77;49.68
33414;BME280;60055;41.884;12.534;2023-04-20T13:31:26;100537.75;;;19.64;50.18
33414;BME280;60055;41.884;12.534;2023-04-20T13:36:26;100530.75;;;19.15;51.75
33414;BME280;60055;41.884;12.534;2023-04-20T13:38:52;100530.44;;;18.83;52.73
33414;BME280;60055;41.884;12.534;2023-04-20T13:41:20;100532.84;;;18.63;53.36
33414;BME280;60055;41.884;12.534;2023-04-20T13:43:46;100535.16;;;18.80;52.51
33414;BME280;60055;41.884;12.534;2023-04-20T13:46:11;100527.25;;;18.78;53.38
33414;BME280;60055;41.884;12.534;2023-04-20T13:48:37;100517.47;;;18.90;53.03
33414;BME280;60055;41.884;12.534;2023-04-20T13:51:02;100518.31;;;18.91;52.45
33414;BME280;60055;41.884;12.534;2023-04-20T13:53:28;100517.53;;;19.01;52.33
33414;BME280;60055;41.884;12.534;2023-04-20T13:55:53;100518.13;;;18.81;52.78
33414;BME280;60055;41.884;12.534;2023-04-20T13:58:19;100522.97;;;18.76;53.03
33414;BME280;60055;41.884;12.534;2023-04-20T14:00:44;100515.09;;;18.62;53.49
33414;BME280;60055;41.884;12.534;2023-04-20T14:03:10;100511.44;;;18.63;54.09
33414;BME280;60055;41.884;12.534;2023-04-20T14:05:37;100510.25;;;18.67;53.93
33414;BME280;60055;41.884;12.534;2023-04-20T14:08:03;100512.31;;;18.63;54.27
33414;BME280;60055;41.884;12.534;2023-04-20T14:10:31;100510.97;;;18.81;54.18
33414;BME280;60055;41.884;12.534;2023-04-20T14:12:57;100509.25;;;18.80;54.01
33414;BME280;60055;41.884;12.534;2023-04-20T14:15:22;100504.22;;;18.76;53.76
33414;BME280;60055;41.884;12.534;2023-04-20T14:17:47;100507.81;;;18.64;54.35
33414;BME280;60055;41.884;12.534;2023-04-20T14:20:13;100504.38;;;18.49;54.78